sensor_id;sensor_type;location;lat;lon;timestamp;P1;durP1;ratioP1;P2;durP2;ratioP2
62582;SDS011;48641;51.676;5.808;2024-02-28T00:00:24;18.70;;;12.32;;
62582;SDS011;48641;51.676;5.808;2024-02-28T00:02:50;17.55;;;11.48;;
62582;SDS011;48641;51.676;5.808;2024-02-28T00:05:16;19.23;;;11.80;;
62582;SDS011;48641;51.676;5.808;2024-02-28T00:07:42;18.73;;;11.50;;
62582;SDS011;48641;51.676;5.808;2024-02-28T00:10:08;18.77;;;11.98;;
62582;SDS011;48641;51.676;5.808;2024-02-28T00:12:33;19.77;;;11.10;;
62582;SDS011;48641;51.676;5.808;2024-02-28T00:14:59;19.60;;;11.32;;
62582;SDS011;48641;51.676;5.808;2024-02-28T00:17:25;19.10;;;11.43;;
62582;SDS011;48641;51.676;5.808;2024-02-28T00:19:51;18.25;;;11.43;;
62582;SDS011;48641;51.676;5.808;2024-02-28T00:22:16;18.67;;;12.00;;
62582;SDS011;48641;51.676;5.808;2024-02-28T00:24:42;19.85;;;12.15;;
62582;SDS011;48641;51.676;5.808;2024-02-28T00:27:07;18.98;;;11.68;;
62582;SDS011;48641;51.676;5.808;2024-02-28T00:29:33;19.17;;;11.40;;
62582;SDS011;48641;51.676;5.808;2024-02-28T00:31:58;17.80;;;11.32;;
62582;SDS011;48641;51.676;5.808;2024-02-28T00:34:24;17.52;;;11.52;;
62582;SDS011;48641;51.676;5.808;2024-02-28T00:36:50;18.58;;;11.55;;
62582;SDS011;48641;51.676;5.808;2024-02-28T00:39:16;18.05;;;10.93;;
62582;SDS011;48641;51.676;5.808;2024-02-28T00:41:42;18.45;;;11.63;;
62582;SDS011;48641;51.676;5.808;2024-02-28T00:44:07;15.63;;;10.95;;
62582;SDS011;48641;51.676;5.808;2024-02-28T00:46:34;18.48;;;11.63;;
62582;SDS011;48641;51.676;5.808;2024-02-28T00:48:59;17.25;;;10.70;;
62582;SDS011;48641;51.676;5.808;2024-02-28T00:51:25;18.63;;;11.50;;
62582;SDS011;48641;51.676;5.808;2024-02-28T00:53:50;17.40;;;11.55;;
62582;SDS011;48641;51.676;5.808;2024-02-28T00:56:16;17.90;;;11.35;;
62582;SDS011;48641;51.676;5.808;2024-02-28T00:58:43;16.27;;;11.13;;
62582;SDS011;48641;51.676;5.808;2024-02-28T01:01:09;17.77;;;11.55;;
62582;SDS011;48641;51.676;5.808;2024-02-28T01:03:35;16.40;;;10.73;;
62582;SDS011;48641;51.676;5.808;2024-02-28T01:06:00;16.48;;;11.07;;
62582;SDS011;48641;51.676;5.808;2024-02-28T01:08:28;17.33;;;10.77;;
62582;SDS011;48641;51.676;5.808;2024-02-28T01:10:53;16.27;;;11.18;;
62582;SDS011;48641;51.676;5.808;2024-02-28T01:13:19;16.98;;;10.43;;
62582;SDS011;48641;51.676;5.808;2024-02-28T01:15:44;16.20;;;10.05;;
62582;SDS011;48641;51.676;5.808;2024-02-28T01:18:10;15.50;;;10.10;;
62582;SDS011;48641;51.676;5.808;2024-02-28T01:20:36;17.35;;;10.93;;
62582;SDS011;48641;51.676;5.808;2024-02-28T01:23:01;16.33;;;10.55;;
62582;SDS011;48641;51.676;5.808;2024-02-28T01:25:27;15.48;;;10.27;;
62582;SDS011;48641;51.676;5.808;2024-02-28T01:27:53;17.20;;;10.77;;
62582;SDS011;48641;51.676;5.808;2024-02-28T01:30:21;16.40;;;10.90;;
62582;SDS011;48641;51.676;5.808;2024-02-28T01:32:46;15.40;;;9.95;;
62582;SDS011;48641;51.676;5.808;2024-02-28T01:35:12;17.45;;;11.15;;
62582;SDS011;48641;51.676;5.808;2024-02-28T01:37:38;15.55;;;9.82;;
62582;SDS011;48641;51.676;5.808;2024-02-28T01:40:04;16.63;;;10.13;;
62582;SDS011;48641;51.676;5.808;2024-02-28T01:42:30;16.10;;;10.32;;
62582;SDS011;48641;51.676;5.808;2024-02-28T01:44:55;16.30;;;10.32;;
62582;SDS011;48641;51.676;5.808;2024-02-28T01:47:21;17.10;;;10.48;;
62582;SDS011;48641;51.676;5.808;2024-02-28T01:49:47;15.85;;;10.15;;
62582;SDS011;48641;51.676;5.808;2024-02-28T01:52:13;15.30;;;9.80;;
62582;SDS011;48641;51.676;5.808;2024-02-28T01:54:39;16.05;;;9.90;;
62582;SDS011;48641;51.676;5.808;2024-02-28T01:57:06;14.18;;;9.75;;
62582;SDS011;48641;51.676;5.808;2024-02-28T01:59:32;14.15;;;9.57;;
62582;SDS011;48641;51.676;5.808;2024-02-28T02:01:59;15.32;;;9.68;;
62582;SDS011;48641;51.676;5.808;2024-02-28T02:04:25;15.35;;;9.38;;
62582;SDS011;48641;51.676;5.808;2024-02-28T02:06:50;15.23;;;9.68;;
62582;SDS011;48641;51.676;5.808;2024-02-28T02:09:19;16.60;;;9.87;;
62582;SDS011;48641;51.676;5.808;2024-02-28T02:11:45;16.38;;;9.65;;
62582;SDS011;48641;51.676;5.808;2024-02-28T02:14:10;15.73;;;9.85;;
62582;SDS011;48641;51.676;5.808;2024-02-28T02:16:36;15.77;;;9.48;;
62582;SDS011;48641;51.676;5.808;2024-02-28T02:19:02;13.90;;;9.30;;
62582;SDS011;48641;51.676;5.808;2024-02-28T02:21:34;14.48;;;9.55;;
62582;SDS011;48641;51.676;5.808;2024-02-28T02:24:06;15.75;;;9.55;;
62582;SDS011;48641;51.676;5.808;2024-02-28T02:26:31;16.45;;;9.82;;
62582;SDS011;48641;51.676;5.808;2024-02-28T02:28:57;15.27;;;9.38;;
62582;SDS011;48641;51.676;5.808;2024-02-28T02:31:22;15.68;;;9.50;;
62582;SDS011;48641;51.676;5.808;2024-02-28T02:33:48;15.30;;;9.48;;
62582;SDS011;48641;51.676;5.808;2024-02-28T02:36:13;15.85;;;9.45;;
62582;SDS011;48641;51.676;5.808;2024-02-28T02:38:39;13.65;;;8.93;;
62582;SDS011;48641;51.676;5.808;2024-02-28T02:41:05;15.35;;;9.30;;
62582;SDS011;48641;51.676;5.808;2024-02-28T02:43:30;15.25;;;9.27;;
62582;SDS011;48641;51.676;5.808;2024-02-28T02:45:56;17.55;;;9.32;;
62582;SDS011;48641;51.676;5.808;2024-02-28T02:48:21;16.23;;;8.90;;
62582;SDS011;48641;51.676;5.808;2024-02-28T02:50:47;14.82;;;9.55;;
62582;SDS011;48641;51.676;5.808;2024-02-28T02:53:13;16.25;;;9.32;;
62582;SDS011;48641;51.676;5.808;2024-02-28T02:55:38;15.52;;;9.55;;
62582;SDS011;48641;51.676;5.808;2024-02-28T02:58:04;15.35;;;9.45;;
62582;SDS011;48641;51.676;5.808;2024-02-28T03:00:30;15.27;;;9.70;;
62582;SDS011;48641;51.676;5.808;2024-02-28T03:02:56;15.25;;;8.60;;
62582;SDS011;48641;51.676;5.808;2024-02-28T03:05:21;14.95;;;9.32;;
62582;SDS011;48641;51.676;5.808;2024-02-28T03:07:47;15.10;;;9.23;;
62582;SDS011;48641;51.676;5.808;2024-02-28T03:10:12;14.73;;;8.98;;
62582;SDS011;48641;51.676;5.808;2024-02-28T03:12:38;15.10;;;8.77;;
62582;SDS011;48641;51.676;5.808;2024-02-28T03:15:03;13.85;;;8.40;;
62582;SDS011;48641;51.676;5.808;2024-02-28T03:17:30;14.63;;;8.45;;
62582;SDS011;48641;51.676;5.808;2024-02-28T03:19:55;14.20;;;8.43;;
62582;SDS011;48641;51.676;5.808;2024-02-28T03:22:21;15.20;;;9.10;;
62582;SDS011;48641;51.676;5.808;2024-02-28T03:24:47;13.88;;;8.15;;
62582;SDS011;48641;51.676;5.808;2024-02-28T03:27:13;14.75;;;8.82;;
62582;SDS011;48641;51.676;5.808;2024-02-28T03:29:39;14.05;;;8.75;;
62582;SDS011;48641;51.676;5.808;2024-02-28T03:32:05;14.82;;;8.43;;
62582;SDS011;48641;51.676;5.808;2024-02-28T03:34:31;14.43;;;8.18;;
62582;SDS011;48641;51.676;5.808;2024-02-28T03:36:56;14.55;;;8.50;;
62582;SDS011;48641;51.676;5.808;2024-02-28T03:39:22;12.82;;;8.70;;
62582;SDS011;48641;51.676;5.808;2024-02-28T03:41:48;14.27;;;8.50;;
62582;SDS011;48641;51.676;5.808;2024-02-28T03:44:13;13.57;;;8.05;;
62582;SDS011;48641;51.676;5.808;2024-02-28T03:46:39;12.75;;;7.95;;
62582;SDS011;48641;51.676;5.808;2024-02-28T03:49:04;13.20;;;7.85;;
62582;SDS011;48641;51.676;5.808;2024-02-28T03:51:30;12.30;;;7.25;;
62582;SDS011;48641;51.676;5.808;2024-02-28T03:53:55;12.55;;;7.15;;
62582;SDS011;48641;51.676;5.808;2024-02-28T03:56:25;12.88;;;7.60;;
62582;SDS011;48641;51.676;5.808;2024-02-28T03:58:51;13.70;;;7.82;;
62582;SDS011;48641;51.676;5.808;2024-02-28T04:01:17;13.68;;;7.53;;
62582;SDS011;48641;51.676;5.808;2024-02-28T04:03:42;11.10;;;6.90;;
62582;SDS011;48641;51.676;5.808;2024-02-28T04:06:08;13.27;;;7.57;;
62582;SDS011;48641;51.676;5.808;2024-02-28T04:08:34;12.15;;;7.30;;
62582;SDS011;48641;51.676;5.808;2024-02-28T04:10:59;13.73;;;7.78;;
62582;SDS011;48641;51.676;5.808;2024-02-28T04:13:25;13.18;;;7.55;;
62582;SDS011;48641;51.676;5.808;2024-02-28T04:15:51;13.57;;;7.88;;
62582;SDS011;48641;51.676;5.808;2024-02-28T04:18:16;14.43;;;7.47;;
62582;SDS011;48641;51.676;5.808;2024-02-28T04:20:42;11.75;;;7.03;;
62582;SDS011;48641;51.676;5.808;2024-02-28T04:23:08;12.77;;;7.43;;
62582;SDS011;48641;51.676;5.808;2024-02-28T04:25:33;13.43;;;7.50;;
62582;SDS011;48641;51.676;5.808;2024-02-28T04:28:00;11.18;;;6.90;;
62582;SDS011;48641;51.676;5.808;2024-02-28T04:30:25;11.15;;;7.22;;
62582;SDS011;48641;51.676;5.808;2024-02-28T04:32:51;12.50;;;7.22;;
62582;SDS011;48641;51.676;5.808;2024-02-28T04:35:16;11.52;;;6.78;;
62582;SDS011;48641;51.676;5.808;2024-02-28T04:37:43;11.30;;;7.00;;
62582;SDS011;48641;51.676;5.808;2024-02-28T04:40:10;12.13;;;7.50;;
62582;SDS011;48641;51.676;5.808;2024-02-28T04:42:36;12.27;;;7.18;;
62582;SDS011;48641;51.676;5.808;2024-02-28T04:45:02;11.38;;;6.53;;
62582;SDS011;48641;51.676;5.808;2024-02-28T04:47:29;14.77;;;7.47;;
62582;SDS011;48641;51.676;5.808;2024-02-28T04:49:55;11.60;;;7.18;;
62582;SDS011;48641;51.676;5.808;2024-02-28T04:52:21;11.25;;;6.72;;
62582;SDS011;48641;51.676;5.808;2024-02-28T04:54:47;12.00;;;6.57;;
62582;SDS011;48641;51.676;5.808;2024-02-28T04:57:12;12.13;;;7.40;;
62582;SDS011;48641;51.676;5.808;2024-02-28T04:59:38;12.63;;;6.95;;
62582;SDS011;48641;51.676;5.808;2024-02-28T05:02:03;11.57;;;6.72;;
62582;SDS011;48641;51.676;5.808;2024-02-28T05:04:30;11.52;;;6.47;;
62582;SDS011;48641;51.676;5.808;2024-02-28T05:06:55;11.98;;;6.55;;
62582;SDS011;48641;51.676;5.808;2024-02-28T05:09:21;11.18;;;6.57;;
62582;SDS011;48641;51.676;5.808;2024-02-28T05:11:46;10.63;;;6.53;;
62582;SDS011;48641;51.676;5.808;2024-02-28T05:14:12;10.60;;;6.28;;
62582;SDS011;48641;51.676;5.808;2024-02-28T05:16:38;11.63;;;6.50;;
62582;SDS011;48641;51.676;5.808;2024-02-28T05:19:03;12.90;;;6.78;;
62582;SDS011;48641;51.676;5.808;2024-02-28T05:21:29;12.65;;;6.80;;
62582;SDS011;48641;51.676;5.808;2024-02-28T05:23:55;11.52;;;6.90;;
62582;SDS011;48641;51.676;5.808;2024-02-28T05:26:20;10.73;;;6.20;;
62582;SDS011;48641;51.676;5.808;2024-02-28T05:28:46;9.90;;;6.00;;
62582;SDS011;48641;51.676;5.808;2024-02-28T05:31:24;11.15;;;6.15;;
62582;SDS011;48641;51.676;5.808;2024-02-28T05:36:17;10.45;;;5.97;;
62582;SDS011;48641;51.676;5.808;2024-02-28T05:43:50;12.07;;;6.25;;
62582;SDS011;48641;51.676;5.808;2024-02-28T05:46:16;11.95;;;6.57;;
62582;SDS011;48641;51.676;5.808;2024-02-28T05:48:43;10.63;;;6.13;;
62582;SDS011;48641;51.676;5.808;2024-02-28T05:51:10;16.63;;;8.73;;
62582;SDS011;48641;51.676;5.808;2024-02-28T05:53:36;14.75;;;8.43;;
62582;SDS011;48641;51.676;5.808;2024-02-28T05:56:03;16.92;;;8.43;;
62582;SDS011;48641;51.676;5.808;2024-02-28T05:58:38;16.63;;;8.70;;
62582;SDS011;48641;51.676;5.808;2024-02-28T06:01:11;19.13;;;9.43;;
62582;SDS011;48641;51.676;5.808;2024-02-28T06:06:03;14.82;;;8.95;;
62582;SDS011;48641;51.676;5.808;2024-02-28T06:08:33;17.13;;;8.75;;
62582;SDS011;48641;51.676;5.808;2024-02-28T06:11:00;15.15;;;8.80;;
62582;SDS011;48641;51.676;5.808;2024-02-28T06:13:27;14.27;;;8.82;;
62582;SDS011;48641;51.676;5.808;2024-02-28T06:15:53;17.30;;;9.38;;
62582;SDS011;48641;51.676;5.808;2024-02-28T06:18:19;14.45;;;8.95;;
62582;SDS011;48641;51.676;5.808;2024-02-28T06:20:47;15.77;;;9.20;;
62582;SDS011;48641;51.676;5.808;2024-02-28T06:28:33;16.40;;;9.48;;
62582;SDS011;48641;51.676;5.808;2024-02-28T06:30:58;15.70;;;9.63;;
62582;SDS011;48641;51.676;5.808;2024-02-28T06:33:24;18.60;;;10.85;;
62582;SDS011;48641;51.676;5.808;2024-02-28T06:35:50;18.65;;;10.25;;
62582;SDS011;48641;51.676;5.808;2024-02-28T06:38:15;16.90;;;9.80;;
62582;SDS011;48641;51.676;5.808;2024-02-28T06:40:41;17.30;;;10.63;;
62582;SDS011;48641;51.676;5.808;2024-02-28T06:43:06;17.33;;;10.73;;
62582;SDS011;48641;51.676;5.808;2024-02-28T06:50:56;17.92;;;10.82;;
62582;SDS011;48641;51.676;5.808;2024-02-28T06:53:22;18.00;;;10.68;;
62582;SDS011;48641;51.676;5.808;2024-02-28T06:55:48;18.00;;;10.45;;
62582;SDS011;48641;51.676;5.808;2024-02-28T06:58:14;19.33;;;11.27;;
62582;SDS011;48641;51.676;5.808;2024-02-28T07:00:40;20.60;;;11.10;;
62582;SDS011;48641;51.676;5.808;2024-02-28T07:03:05;19.70;;;10.88;;
62582;SDS011;48641;51.676;5.808;2024-02-28T07:05:32;21.17;;;11.45;;
62582;SDS011;48641;51.676;5.808;2024-02-28T07:07:58;17.58;;;11.00;;
62582;SDS011;48641;51.676;5.808;2024-02-28T07:10:24;18.88;;;11.18;;
62582;SDS011;48641;51.676;5.808;2024-02-28T07:12:50;18.05;;;10.82;;
62582;SDS011;48641;51.676;5.808;2024-02-28T07:15:16;19.77;;;10.80;;
62582;SDS011;48641;51.676;5.808;2024-02-28T07:17:44;20.90;;;10.43;;
62582;SDS011;48641;51.676;5.808;2024-02-28T07:20:10;20.40;;;11.25;;
62582;SDS011;48641;51.676;5.808;2024-02-28T07:22:37;19.40;;;11.07;;
62582;SDS011;48641;51.676;5.808;2024-02-28T07:25:03;19.75;;;11.32;;
62582;SDS011;48641;51.676;5.808;2024-02-28T07:27:29;22.35;;;11.27;;
62582;SDS011;48641;51.676;5.808;2024-02-28T07:29:55;19.52;;;10.55;;
62582;SDS011;48641;51.676;5.808;2024-02-28T07:32:21;18.77;;;10.55;;
62582;SDS011;48641;51.676;5.808;2024-02-28T07:34:47;20.88;;;11.05;;
62582;SDS011;48641;51.676;5.808;2024-02-28T07:37:12;20.77;;;10.48;;
62582;SDS011;48641;51.676;5.808;2024-02-28T07:39:38;18.65;;;9.95;;
62582;SDS011;48641;51.676;5.808;2024-02-28T07:42:03;19.73;;;11.60;;
62582;SDS011;48641;51.676;5.808;2024-02-28T07:44:29;19.77;;;9.75;;
62582;SDS011;48641;51.676;5.808;2024-02-28T07:46:58;19.10;;;9.80;;
62582;SDS011;48641;51.676;5.808;2024-02-28T07:49:24;18.77;;;9.38;;
62582;SDS011;48641;51.676;5.808;2024-02-28T07:51:50;18.20;;;9.80;;
62582;SDS011;48641;51.676;5.808;2024-02-28T07:54:15;18.52;;;9.88;;
62582;SDS011;48641;51.676;5.808;2024-02-28T07:56:41;17.08;;;9.40;;
62582;SDS011;48641;51.676;5.808;2024-02-28T07:59:07;16.45;;;8.95;;
62582;SDS011;48641;51.676;5.808;2024-02-28T08:01:33;18.50;;;9.30;;
62582;SDS011;48641;51.676;5.808;2024-02-28T08:03:58;16.83;;;9.02;;
62582;SDS011;48641;51.676;5.808;2024-02-28T08:06:24;17.80;;;9.38;;
62582;SDS011;48641;51.676;5.808;2024-02-28T08:08:50;18.40;;;9.70;;
62582;SDS011;48641;51.676;5.808;2024-02-28T08:11:16;17.10;;;9.90;;
62582;SDS011;48641;51.676;5.808;2024-02-28T08:13:42;17.35;;;8.90;;
62582;SDS011;48641;51.676;5.808;2024-02-28T08:16:09;16.05;;;9.18;;
62582;SDS011;48641;51.676;5.808;2024-02-28T08:18:35;16.67;;;8.93;;
62582;SDS011;48641;51.676;5.808;2024-02-28T08:21:00;17.92;;;8.77;;
62582;SDS011;48641;51.676;5.808;2024-02-28T08:23:27;16.80;;;9.15;;
62582;SDS011;48641;51.676;5.808;2024-02-28T08:25:54;16.23;;;8.98;;
62582;SDS011;48641;51.676;5.808;2024-02-28T08:28:20;15.73;;;8.63;;
62582;SDS011;48641;51.676;5.808;2024-02-28T08:30:45;18.08;;;8.23;;
62582;SDS011;48641;51.676;5.808;2024-02-28T08:33:11;16.17;;;8.63;;
62582;SDS011;48641;51.676;5.808;2024-02-28T08:35:37;14.77;;;7.70;;
62582;SDS011;48641;51.676;5.808;2024-02-28T08:38:02;15.35;;;8.23;;
62582;SDS011;48641;51.676;5.808;2024-02-28T08:40:28;14.13;;;8.05;;
62582;SDS011;48641;51.676;5.808;2024-02-28T08:42:55;14.88;;;8.00;;
62582;SDS011;48641;51.676;5.808;2024-02-28T08:45:22;15.25;;;8.18;;
62582;SDS011;48641;51.676;5.808;2024-02-28T08:47:48;15.60;;;7.70;;
62582;SDS011;48641;51.676;5.808;2024-02-28T08:50:13;15.18;;;8.25;;
62582;SDS011;48641;51.676;5.808;2024-02-28T08:52:39;14.63;;;7.55;;
62582;SDS011;48641;51.676;5.808;2024-02-28T08:55:05;16.58;;;7.72;;
62582;SDS011;48641;51.676;5.808;2024-02-28T08:57:31;14.15;;;7.18;;
62582;SDS011;48641;51.676;5.808;2024-02-28T08:59:56;15.32;;;8.20;;
62582;SDS011;48641;51.676;5.808;2024-02-28T09:02:22;14.98;;;7.60;;
62582;SDS011;48641;51.676;5.808;2024-02-28T09:04:48;13.32;;;7.32;;
62582;SDS011;48641;51.676;5.808;2024-02-28T09:07:19;14.15;;;7.60;;
62582;SDS011;48641;51.676;5.808;2024-02-28T09:09:45;14.70;;;7.37;;
62582;SDS011;48641;51.676;5.808;2024-02-28T09:12:11;13.95;;;7.65;;
62582;SDS011;48641;51.676;5.808;2024-02-28T09:14:37;14.90;;;7.90;;
62582;SDS011;48641;51.676;5.808;2024-02-28T09:17:03;13.07;;;7.15;;
62582;SDS011;48641;51.676;5.808;2024-02-28T09:19:32;14.82;;;7.80;;
62582;SDS011;48641;51.676;5.808;2024-02-28T09:21:57;14.43;;;7.40;;
62582;SDS011;48641;51.676;5.808;2024-02-28T09:24:24;12.77;;;7.53;;
62582;SDS011;48641;51.676;5.808;2024-02-28T09:26:49;12.90;;;6.70;;
62582;SDS011;48641;51.676;5.808;2024-02-28T09:29:15;14.68;;;7.78;;
62582;SDS011;48641;51.676;5.808;2024-02-28T09:31:41;12.77;;;7.00;;
62582;SDS011;48641;51.676;5.808;2024-02-28T09:34:06;14.05;;;7.00;;
62582;SDS011;48641;51.676;5.808;2024-02-28T09:36:41;16.73;;;7.22;;
62582;SDS011;48641;51.676;5.808;2024-02-28T09:39:13;14.52;;;7.47;;
62582;SDS011;48641;51.676;5.808;2024-02-28T09:44:25;15.18;;;7.32;;
62582;SDS011;48641;51.676;5.808;2024-02-28T09:46:51;14.63;;;7.70;;
62582;SDS011;48641;51.676;5.808;2024-02-28T09:49:18;12.52;;;6.63;;
62582;SDS011;48641;51.676;5.808;2024-02-28T09:51:44;12.02;;;7.15;;
62582;SDS011;48641;51.676;5.808;2024-02-28T09:54:15;13.18;;;7.50;;
62582;SDS011;48641;51.676;5.808;2024-02-28T09:56:40;14.15;;;6.82;;
62582;SDS011;48641;51.676;5.808;2024-02-28T09:59:06;13.13;;;6.93;;
62582;SDS011;48641;51.676;5.808;2024-02-28T10:07:10;13.57;;;6.78;;
62582;SDS011;48641;51.676;5.808;2024-02-28T10:09:43;12.35;;;6.38;;
62582;SDS011;48641;51.676;5.808;2024-02-28T10:12:09;13.85;;;8.23;;
62582;SDS011;48641;51.676;5.808;2024-02-28T10:14:34;12.38;;;7.05;;
62582;SDS011;48641;51.676;5.808;2024-02-28T10:17:00;12.65;;;7.03;;
62582;SDS011;48641;51.676;5.808;2024-02-28T10:22:01;12.27;;;6.75;;
62582;SDS011;48641;51.676;5.808;2024-02-28T10:24:26;12.18;;;6.65;;
62582;SDS011;48641;51.676;5.808;2024-02-28T10:26:52;13.35;;;6.13;;
62582;SDS011;48641;51.676;5.808;2024-02-28T10:29:21;12.10;;;6.63;;
62582;SDS011;48641;51.676;5.808;2024-02-28T10:34:22;14.18;;;6.47;;
62582;SDS011;48641;51.676;5.808;2024-02-28T10:36:49;13.25;;;6.63;;
62582;SDS011;48641;51.676;5.808;2024-02-28T10:39:16;12.40;;;6.50;;
62582;SDS011;48641;51.676;5.808;2024-02-28T10:41:42;11.48;;;6.43;;
62582;SDS011;48641;51.676;5.808;2024-02-28T10:44:12;12.93;;;6.85;;
62582;SDS011;48641;51.676;5.808;2024-02-28T10:51:50;11.90;;;6.55;;
62582;SDS011;48641;51.676;5.808;2024-02-28T10:54:21;11.93;;;6.40;;
62582;SDS011;48641;51.676;5.808;2024-02-28T11:07:11;11.73;;;5.93;;
62582;SDS011;48641;51.676;5.808;2024-02-28T11:09:44;13.10;;;6.70;;
62582;SDS011;48641;51.676;5.808;2024-02-28T11:12:23;12.55;;;6.35;;
62582;SDS011;48641;51.676;5.808;2024-02-28T11:14:57;11.57;;;6.00;;
62582;SDS011;48641;51.676;5.808;2024-02-28T11:17:28;14.02;;;7.63;;
62582;SDS011;48641;51.676;5.808;2024-02-28T11:19:54;12.13;;;6.13;;
62582;SDS011;48641;51.676;5.808;2024-02-28T11:22:20;12.60;;;6.43;;
62582;SDS011;48641;51.676;5.808;2024-02-28T11:24:48;11.73;;;5.75;;
62582;SDS011;48641;51.676;5.808;2024-02-28T11:27:15;11.85;;;5.68;;
62582;SDS011;48641;51.676;5.808;2024-02-28T11:29:41;10.98;;;5.85;;
62582;SDS011;48641;51.676;5.808;2024-02-28T11:32:07;11.82;;;6.10;;
62582;SDS011;48641;51.676;5.808;2024-02-28T11:50:33;13.07;;;6.00;;
62582;SDS011;48641;51.676;5.808;2024-02-28T11:52:58;10.13;;;5.65;;
62582;SDS011;48641;51.676;5.808;2024-02-28T11:55:26;9.37;;;5.03;;
62582;SDS011;48641;51.676;5.808;2024-02-28T11:57:52;11.05;;;5.70;;
62582;SDS011;48641;51.676;5.808;2024-02-28T12:00:18;10.27;;;6.20;;
62582;SDS011;48641;51.676;5.808;2024-02-28T12:02:43;11.88;;;6.15;;
62582;SDS011;48641;51.676;5.808;2024-02-28T12:05:09;13.38;;;5.93;;
62582;SDS011;48641;51.676;5.808;2024-02-28T12:07:34;11.48;;;5.38;;
62582;SDS011;48641;51.676;5.808;2024-02-28T12:10:01;13.02;;;5.60;;
62582;SDS011;48641;51.676;5.808;2024-02-28T12:12:27;10.73;;;5.38;;
62582;SDS011;48641;51.676;5.808;2024-02-28T12:14:57;11.13;;;5.68;;
62582;SDS011;48641;51.676;5.808;2024-02-28T12:17:26;11.35;;;5.82;;
62582;SDS011;48641;51.676;5.808;2024-02-28T12:19:52;10.23;;;5.18;;
62582;SDS011;48641;51.676;5.808;2024-02-28T12:22:18;10.65;;;5.30;;
62582;SDS011;48641;51.676;5.808;2024-02-28T12:29:47;10.30;;;5.00;;
62582;SDS011;48641;51.676;5.808;2024-02-28T12:32:13;13.40;;;6.95;;
62582;SDS011;48641;51.676;5.808;2024-02-28T12:34:42;10.55;;;5.60;;
62582;SDS011;48641;51.676;5.808;2024-02-28T12:37:07;11.13;;;5.95;;
62582;SDS011;48641;51.676;5.808;2024-02-28T12:39:33;12.68;;;6.63;;
62582;SDS011;48641;51.676;5.808;2024-02-28T12:41:59;14.85;;;7.72;;
62582;SDS011;48641;51.676;5.808;2024-02-28T12:44:25;13.95;;;7.50;;
62582;SDS011;48641;51.676;5.808;2024-02-28T12:46:51;16.48;;;8.90;;
62582;SDS011;48641;51.676;5.808;2024-02-28T12:49:16;11.90;;;5.90;;
62582;SDS011;48641;51.676;5.808;2024-02-28T12:51:43;12.18;;;5.97;;
62582;SDS011;48641;51.676;5.808;2024-02-28T12:56:45;11.00;;;5.57;;
62582;SDS011;48641;51.676;5.808;2024-02-28T12:59:11;11.35;;;6.00;;
62582;SDS011;48641;51.676;5.808;2024-02-28T13:01:37;10.77;;;5.85;;
62582;SDS011;48641;51.676;5.808;2024-02-28T13:04:03;12.52;;;6.47;;
62582;SDS011;48641;51.676;5.808;2024-02-28T13:06:29;10.25;;;5.13;;
62582;SDS011;48641;51.676;5.808;2024-02-28T13:08:54;11.40;;;5.93;;
62582;SDS011;48641;51.676;5.808;2024-02-28T13:11:23;12.05;;;5.88;;
62582;SDS011;48641;51.676;5.808;2024-02-28T13:13:50;10.30;;;5.65;;
62582;SDS011;48641;51.676;5.808;2024-02-28T13:16:17;11.57;;;5.63;;
62582;SDS011;48641;51.676;5.808;2024-02-28T13:18:43;11.90;;;5.88;;
62582;SDS011;48641;51.676;5.808;2024-02-28T13:21:10;11.90;;;6.00;;
62582;SDS011;48641;51.676;5.808;2024-02-28T13:23:35;11.52;;;5.65;;
62582;SDS011;48641;51.676;5.808;2024-02-28T13:26:02;12.75;;;6.63;;
62582;SDS011;48641;51.676;5.808;2024-02-28T13:28:31;10.85;;;5.88;;
62582;SDS011;48641;51.676;5.808;2024-02-28T13:33:27;11.45;;;5.63;;
62582;SDS011;48641;51.676;5.808;2024-02-28T13:35:53;12.02;;;5.93;;
62582;SDS011;48641;51.676;5.808;2024-02-28T13:38:19;12.80;;;6.38;;
62582;SDS011;48641;51.676;5.808;2024-02-28T13:40:49;11.43;;;6.05;;
62582;SDS011;48641;51.676;5.808;2024-02-28T13:43:15;11.13;;;5.22;;
62582;SDS011;48641;51.676;5.808;2024-02-28T13:45:49;13.63;;;6.82;;
62582;SDS011;48641;51.676;5.808;2024-02-28T13:48:20;11.48;;;5.45;;
62582;SDS011;48641;51.676;5.808;2024-02-28T13:50:47;9.00;;;5.15;;
62582;SDS011;48641;51.676;5.808;2024-02-28T13:53:13;11.63;;;5.75;;
62582;SDS011;48641;51.676;5.808;2024-02-28T13:55:40;11.40;;;5.85;;
62582;SDS011;48641;51.676;5.808;2024-02-28T13:58:07;9.20;;;5.30;;
62582;SDS011;48641;51.676;5.808;2024-02-28T14:00:35;11.13;;;5.20;;
62582;SDS011;48641;51.676;5.808;2024-02-28T14:03:01;13.05;;;6.35;;
62582;SDS011;48641;51.676;5.808;2024-02-28T14:05:28;11.52;;;5.53;;
62582;SDS011;48641;51.676;5.808;2024-02-28T14:07:54;11.55;;;5.47;;
62582;SDS011;48641;51.676;5.808;2024-02-28T14:10:20;10.23;;;5.32;;
62582;SDS011;48641;51.676;5.808;2024-02-28T14:17:57;9.57;;;5.05;;
62582;SDS011;48641;51.676;5.808;2024-02-28T14:25:28;8.25;;;4.55;;
62582;SDS011;48641;51.676;5.808;2024-02-28T14:27:53;10.43;;;5.22;;
62582;SDS011;48641;51.676;5.808;2024-02-28T14:30:19;9.93;;;4.90;;
62582;SDS011;48641;51.676;5.808;2024-02-28T14:32:45;9.60;;;4.70;;
62582;SDS011;48641;51.676;5.808;2024-02-28T14:35:13;9.40;;;4.68;;
62582;SDS011;48641;51.676;5.808;2024-02-28T14:37:39;10.20;;;4.88;;
62582;SDS011;48641;51.676;5.808;2024-02-28T14:40:05;9.55;;;5.00;;
62582;SDS011;48641;51.676;5.808;2024-02-28T14:42:45;9.18;;;4.35;;
62582;SDS011;48641;51.676;5.808;2024-02-28T14:45:11;10.13;;;5.10;;
62582;SDS011;48641;51.676;5.808;2024-02-28T14:47:38;10.52;;;4.68;;
62582;SDS011;48641;51.676;5.808;2024-02-28T14:50:04;9.48;;;4.70;;
62582;SDS011;48641;51.676;5.808;2024-02-28T14:52:30;10.45;;;4.45;;
62582;SDS011;48641;51.676;5.808;2024-02-28T14:54:56;10.13;;;5.15;;
62582;SDS011;48641;51.676;5.808;2024-02-28T14:57:21;8.95;;;4.40;;
62582;SDS011;48641;51.676;5.808;2024-02-28T14:59:47;9.25;;;4.63;;
62582;SDS011;48641;51.676;5.808;2024-02-28T15:02:13;10.38;;;4.53;;
62582;SDS011;48641;51.676;5.808;2024-02-28T15:04:38;8.73;;;4.10;;
62582;SDS011;48641;51.676;5.808;2024-02-28T15:07:04;10.90;;;5.10;;
62582;SDS011;48641;51.676;5.808;2024-02-28T15:09:30;8.52;;;4.10;;
62582;SDS011;48641;51.676;5.808;2024-02-28T15:11:56;10.27;;;4.60;;
62582;SDS011;48641;51.676;5.808;2024-02-28T15:14:22;9.13;;;3.90;;
62582;SDS011;48641;51.676;5.808;2024-02-28T15:16:48;8.95;;;4.50;;
62582;SDS011;48641;51.676;5.808;2024-02-28T15:19:14;9.25;;;4.32;;
62582;SDS011;48641;51.676;5.808;2024-02-28T15:21:41;9.05;;;4.15;;
62582;SDS011;48641;51.676;5.808;2024-02-28T15:29:49;8.77;;;4.25;;
62582;SDS011;48641;51.676;5.808;2024-02-28T15:32:14;8.77;;;3.65;;
62582;SDS011;48641;51.676;5.808;2024-02-28T15:40:19;8.90;;;4.22;;
62582;SDS011;48641;51.676;5.808;2024-02-28T15:42:47;7.72;;;3.75;;
62582;SDS011;48641;51.676;5.808;2024-02-28T15:45:12;9.45;;;3.85;;
62582;SDS011;48641;51.676;5.808;2024-02-28T15:47:40;8.05;;;3.75;;
62582;SDS011;48641;51.676;5.808;2024-02-28T15:50:06;8.13;;;3.70;;
62582;SDS011;48641;51.676;5.808;2024-02-28T15:52:32;9.20;;;4.00;;
62582;SDS011;48641;51.676;5.808;2024-02-28T15:54:58;8.32;;;3.58;;
62582;SDS011;48641;51.676;5.808;2024-02-28T15:57:24;10.85;;;3.80;;
62582;SDS011;48641;51.676;5.808;2024-02-28T15:59:49;8.05;;;3.80;;
62582;SDS011;48641;51.676;5.808;2024-02-28T16:02:15;8.98;;;3.70;;
62582;SDS011;48641;51.676;5.808;2024-02-28T16:04:41;8.50;;;3.50;;